CheckWX is a tool to help pilots better visualize weather data.  It is not intended as a substitute for an official pre-flight weather briefing.

17:09:31 UTC

ENSK METAR
Stokmarknes Skagen Airport
Hadsel, Norway
Current

50 mins ago

ENSK 211620Z 07006KT 030V100 9999 BKN092 19/14 Q1010
Observed
Jul-21 @ 16:20 UTC
Wind
  • 070° at 6 KTS
Visibility
10,000+ meters
Flight Rules
VFR
Cloud Levels
  • Broken at 9,200' AGL
Temperature
19°C / 66°F
Dewpoint
14°C / 57°F
Humidity
73%
Altimeter
29.82" Hg
Pressure
1009.92 hPa
Previous

1 hour ago

ENSK 211550Z 05004KT 010V080 9999 BKN068 17/14 Q1010
Observed
Jul-21 @ 15:50 UTC
Wind
  • 050° at 4 KTS
Visibility
10,000+ meters
Flight Rules
VFR
Cloud Levels
  • Broken at 6,800' AGL
Temperature
17°C / 63°F
Dewpoint
14°C / 57°F
Humidity
83%
Altimeter
29.82" Hg
Pressure
1009.92 hPa
Previous

2 hours ago

ENSK 211520Z VRB02KT 9999 BKN063 16/14 Q1011
Observed
Jul-21 @ 15:20 UTC
Wind
  • Variable at 2 KTS
Visibility
10,000+ meters
Flight Rules
VFR
Cloud Levels
  • Broken at 6,300' AGL
Temperature
16°C / 61°F
Dewpoint
14°C / 57°F
Humidity
88%
Altimeter
29.85" Hg
Pressure
1010.92 hPa